Time;durP1;ratioP1;P1;durP2;ratioP2;P2;SDS_P1;SDS_P2;PMS_P1;PMS_P2;Temp;Humidity;BMP_temperature;BMP_pressure;BME280_temperature;BME280_humidity;BME280_pressure;Samples;Min_cycle;Max_cycle;Signal;HPM_P1;HPM_P2
2022/03/03 00:00:22;;;;;;;109.22;57.03;;;;;;;;;;4820476;29;20141;-64
2022/03/03 00:02:48;;;;;;;118.35;58.78;;;;;;;;;;4820702;29;20333;-63
2022/03/03 00:05:14;;;;;;;116.90;59.53;;;;;;;;;;4820891;29;20054;-63
2022/03/03 00:07:41;;;;;;;111.38;57.83;;;;;;;;;;4820773;29;20046;-63
2022/03/03 00:10:07;;;;;;;;;;;;;;;;;;4821250;29;20134;-64
2022/03/03 00:12:33;;;;;;;109.70;58.80;;;;;;;;;;4824156;29;20412;-65
2022/03/03 00:14:59;;;;;;;109.88;57.83;;;;;;;;;;4823412;29;20142;-63
2022/03/03 00:17:25;;;;;;;113.07;57.63;;;;;;;;;;4820587;29;20386;-63
2022/03/03 00:19:52;;;;;;;111.25;56.70;;;;;;;;;;4820517;29;20050;-63
2022/03/03 00:22:18;;;;;;;118.40;59.50;;;;;;;;;;4804316;29;20061;-62
2022/03/03 00:24:44;;;;;;;111.85;56.75;;;;;;;;;;4820470;29;20051;-63
2022/03/03 00:27:11;;;;;;;113.20;57.40;;;;;;;;;;4820760;29;20054;-63
2022/03/03 00:29:37;;;;;;;112.25;59.28;;;;;;;;;;4834211;29;20058;-64
2022/03/03 00:32:03;;;;;;;112.30;56.47;;;;;;;;;;4820565;29;20146;-64
2022/03/03 00:34:29;;;;;;;107.63;54.35;;;;;;;;;;4820421;29;20046;-64
2022/03/03 00:36:55;;;;;;;117.95;59.20;;;;;;;;;;4820477;29;20104;-64
2022/03/03 00:39:22;;;;;;;109.65;55.47;;;;;;;;;;4818924;29;20058;-63
2022/03/03 00:41:48;;;;;;;112.15;56.55;;;;;;;;;;4820167;29;20078;-64
2022/03/03 00:44:14;;;;;;;108.43;54.35;;;;;;;;;;4820298;29;20109;-63
2022/03/03 00:46:40;;;;;;;110.78;57.50;;;;;;;;;;4820102;29;20057;-63
2022/03/03 00:49:06;;;;;;;121.15;57.83;;;;;;;;;;4820130;29;20109;-63
2022/03/03 00:51:32;;;;;;;102.10;53.33;;;;;;;;;;4820304;29;20068;-64
2022/03/03 00:53:58;;;;;;;112.25;57.72;;;;;;;;;;4820793;29;20373;-63
2022/03/03 00:56:24;;;;;;;103.32;53.80;;;;;;;;;;4820257;29;20344;-63
2022/03/03 00:58:51;;;;;;;109.50;57.97;;;;;;;;;;4819948;29;20161;-64
2022/03/03 01:01:17;;;;;;;104.13;56.15;;;;;;;;;;4820027;29;20058;-63
2022/03/03 01:03:43;;;;;;;107.95;57.65;;;;;;;;;;4820472;29;20065;-63
2022/03/03 01:06:10;;;;;;;102.03;54.60;;;;;;;;;;4820380;29;20091;-64
2022/03/03 01:08:36;;;;;;;99.82;53.60;;;;;;;;;;4819682;29;20468;-63
2022/03/03 01:11:03;;;;;;;101.22;54.22;;;;;;;;;;4821078;29;20051;-63
2022/03/03 01:13:29;;;;;;;99.00;53.28;;;;;;;;;;4837128;29;20355;-65
2022/03/03 01:15:55;;;;;;;104.97;55.63;;;;;;;;;;4822662;29;20080;-64
2022/03/03 01:18:21;;;;;;;;;;;;;;;;;;4822998;29;20070;-63
2022/03/03 01:20:47;;;;;;;104.97;53.53;;;;;;;;;;4822423;29;20019;-64
2022/03/03 01:23:13;;;;;;;100.47;55.17;;;;;;;;;;4822345;29;20055;-64
2022/03/03 01:25:39;;;;;;;98.82;52.00;;;;;;;;;;4822599;29;20074;-64
2022/03/03 01:28:05;;;;;;;105.00;55.35;;;;;;;;;;4822769;29;20047;-64
2022/03/03 01:30:32;;;;;;;107.20;55.50;;;;;;;;;;4822495;29;20065;-65
2022/03/03 01:32:58;;;;;;;105.53;55.58;;;;;;;;;;4822909;29;20117;-64
2022/03/03 01:35:24;;;;;;;106.68;56.25;;;;;;;;;;4822429;29;20483;-64
2022/03/03 01:37:50;;;;;;;93.82;51.85;;;;;;;;;;4835781;29;20054;-64
2022/03/03 01:40:16;;;;;;;96.68;52.72;;;;;;;;;;4822282;29;20062;-64
2022/03/03 01:42:42;;;;;;;96.22;52.13;;;;;;;;;;4822231;29;20089;-64
2022/03/03 01:45:09;;;;;;;99.90;51.33;;;;;;;;;;4806138;29;20042;-64
2022/03/03 01:47:34;;;;;;;;;;;;;;;;;;4822730;29;20064;-64
2022/03/03 01:50:01;;;;;;;100.30;53.55;;;;;;;;;;4822285;29;19952;-64
2022/03/03 01:52:27;;;;;;;101.75;53.60;;;;;;;;;;4822420;29;20064;-63
2022/03/03 01:54:53;;;;;;;96.13;52.10;;;;;;;;;;4836060;29;20080;-65
2022/03/03 01:57:20;;;;;;;100.90;52.50;;;;;;;;;;4822178;29;20356;-63
2022/03/03 01:59:47;;;;;;;93.88;53.85;;;;;;;;;;4835912;29;20141;-64
2022/03/03 02:02:13;;;;;;;99.47;54.53;;;;;;;;;;4822243;29;20054;-64
2022/03/03 02:04:39;;;;;;;;;;;;;;;;;;4822276;29;20104;-64
2022/03/03 02:07:06;;;;;;;94.60;51.10;;;;;;;;;;4822048;29;20027;-64
2022/03/03 02:09:32;;;;;;;102.43;54.03;;;;;;;;;;4822162;29;20142;-64
2022/03/03 02:11:58;;;;;;;96.30;52.53;;;;;;;;;;4821596;29;20054;-64
2022/03/03 02:14:25;;;;;;;98.40;53.20;;;;;;;;;;4821735;29;20051;-64
2022/03/03 02:16:51;;;;;;;98.43;52.70;;;;;;;;;;4821457;29;20066;-64
2022/03/03 02:19:20;;;;;;;97.22;52.58;;;;;;;;;;4821390;29;20165;-63
2022/03/03 02:21:50;;;;;;;104.78;54.33;;;;;;;;;;4821005;29;20062;-64
2022/03/03 02:24:17;;;;;;;98.95;52.22;;;;;;;;;;4821390;29;20066;-64
2022/03/03 02:26:43;;;;;;;100.53;54.67;;;;;;;;;;4821422;29;20046;-64
2022/03/03 02:29:09;;;;;;;99.32;52.33;;;;;;;;;;4821084;29;20061;-62
2022/03/03 02:31:36;;;;;;;94.28;52.60;;;;;;;;;;4835460;29;20129;-63
2022/03/03 02:34:02;;;;;;;97.05;50.70;;;;;;;;;;4821073;29;20124;-63
2022/03/03 02:36:28;;;;;;;97.40;51.28;;;;;;;;;;4821305;29;20499;-63
2022/03/03 02:38:56;;;;;;;98.22;51.90;;;;;;;;;;4821381;29;20149;-63
2022/03/03 02:41:23;;;;;;;100.60;52.67;;;;;;;;;;4820859;29;20093;-63
2022/03/03 02:43:49;;;;;;;102.03;52.72;;;;;;;;;;4820898;29;20416;-63
2022/03/03 02:46:15;;;;;;;93.95;52.60;;;;;;;;;;4821233;29;20043;-62
2022/03/03 02:48:41;;;;;;;;;;;;;;;;;;4821538;29;20058;-64
2022/03/03 02:51:08;;;;;;;97.47;51.83;;;;;;;;;;4804768;29;20223;-62
2022/03/03 02:53:34;;;;;;;99.05;54.15;;;;;;;;;;4834736;29;20065;-62
2022/03/03 02:56:01;;;;;;;98.68;52.40;;;;;;;;;;4821156;29;20085;-63
2022/03/03 02:58:27;;;;;;;;;;;;;;;;;;4821525;29;20054;-63
2022/03/03 03:00:53;;;;;;;101.50;56.97;;;;;;;;;;4820940;29;20020;-63
2022/03/03 03:03:19;;;;;;;102.22;54.55;;;;;;;;;;4820946;29;20122;-63
2022/03/03 03:05:46;;;;;;;95.15;51.60;;;;;;;;;;4820900;29;20046;-63
2022/03/03 03:08:13;;;;;;;99.07;54.90;;;;;;;;;;4820531;29;20097;-62
2022/03/03 03:10:39;;;;;;;99.18;50.83;;;;;;;;;;4834395;29;20137;-62
2022/03/03 03:13:05;;;;;;;;;;;;;;;;;;4820546;29;20092;-63
2022/03/03 03:15:31;;;;;;;93.43;50.67;;;;;;;;;;4820813;29;20354;-63
2022/03/03 03:17:57;;;;;;;;;;;;;;;;;;4834660;29;20170;-63
2022/03/03 03:20:23;;;;;;;89.97;51.28;;;;;;;;;;4820392;29;20340;-63
2022/03/03 03:22:50;;;;;;;89.75;50.15;;;;;;;;;;4820301;29;20104;-64
2022/03/03 03:25:16;;;;;;;89.22;51.70;;;;;;;;;;4820372;29;20093;-63
2022/03/03 03:27:43;;;;;;;101.82;54.17;;;;;;;;;;4820682;29;20050;-62
2022/03/03 03:30:10;;;;;;;97.28;52.08;;;;;;;;;;4819808;29;20480;-62
2022/03/03 03:32:37;;;;;;;86.95;51.40;;;;;;;;;;4819766;29;20077;-62
2022/03/03 03:35:04;;;;;;;;;;;;;;;;;;4819825;29;20102;-62
2022/03/03 03:37:30;;;;;;;97.97;52.90;;;;;;;;;;4820173;29;19971;-62
2022/03/03 03:39:56;;;;;;;;;;;;;;;;;;4820649;29;20062;-62
2022/03/03 03:42:22;;;;;;;96.28;54.03;;;;;;;;;;4820271;29;19935;-61
2022/03/03 03:44:48;;;;;;;97.03;54.28;;;;;;;;;;4820035;29;20050;-64
2022/03/03 03:47:15;;;;;;;91.93;53.97;;;;;;;;;;4820052;29;20459;-62
2022/03/03 03:49:41;;;;;;;90.82;55.80;;;;;;;;;;4820225;29;20050;-62
2022/03/03 03:52:07;;;;;;;92.38;52.13;;;;;;;;;;4819982;29;20117;-63
2022/03/03 03:54:33;;;;;;;90.28;49.70;;;;;;;;;;4820115;29;20050;-62
2022/03/03 03:56:59;;;;;;;92.32;52.40;;;;;;;;;;4820124;29;20105;-62
2022/03/03 03:59:25;;;;;;;94.97;50.95;;;;;;;;;;4820055;29;20475;-62
2022/03/03 04:01:51;;;;;;;100.20;51.67;;;;;;;;;;4820458;29;20436;-63
2022/03/03 04:04:17;;;;;;;90.45;51.72;;;;;;;;;;4820172;29;20060;-63
2022/03/03 04:06:44;;;;;;;90.75;51.38;;;;;;;;;;4820091;29;20114;-63
2022/03/03 04:09:10;;;;;;;95.93;53.50;;;;;;;;;;4820022;29;20047;-63
2022/03/03 04:11:36;;;;;;;88.13;48.22;;;;;;;;;;4820094;29;20062;-63
2022/03/03 04:14:02;;;;;;;92.78;51.75;;;;;;;;;;4819970;29;20202;-63
2022/03/03 04:16:29;;;;;;;88.07;49.25;;;;;;;;;;4820049;29;20180;-62
2022/03/03 04:18:55;;;;;;;82.47;47.90;;;;;;;;;;4819906;29;20066;-63
2022/03/03 04:21:21;;;;;;;79.80;46.88;;;;;;;;;;4819818;29;20134;-63
2022/03/03 04:23:47;;;;;;;82.05;46.80;;;;;;;;;;4819585;29;20448;-63
2022/03/03 04:26:13;;;;;;;79.75;45.50;;;;;;;;;;4819628;29;20042;-63
2022/03/03 04:28:39;;;;;;;81.85;46.40;;;;;;;;;;4819680;29;20134;-63
2022/03/03 04:31:05;;;;;;;78.45;44.70;;;;;;;;;;4819608;29;20131;-63
2022/03/03 04:33:31;;;;;;;79.35;47.50;;;;;;;;;;4803280;29;20443;-63
2022/03/03 04:35:57;;;;;;;74.65;47.25;;;;;;;;;;4819413;29;20113;-63
2022/03/03 04:38:24;;;;;;;76.47;46.88;;;;;;;;;;4819335;29;20150;-62
2022/03/03 04:40:50;;;;;;;76.20;45.53;;;;;;;;;;4819721;29;20148;-63
2022/03/03 04:43:16;;;;;;;82.00;47.58;;;;;;;;;;4833146;29;20130;-63
2022/03/03 04:45:42;;;;;;;82.93;45.95;;;;;;;;;;4821481;29;20440;-63
2022/03/03 04:48:09;;;;;;;75.80;46.33;;;;;;;;;;4822591;29;20197;-63
2022/03/03 04:50:35;;;;;;;76.57;45.40;;;;;;;;;;4822950;29;20127;-62
2022/03/03 04:53:01;;;;;;;78.10;44.55;;;;;;;;;;4822289;29;20061;-62
2022/03/03 04:55:27;;;;;;;77.75;45.60;;;;;;;;;;4823161;29;20143;-62
2022/03/03 04:57:53;;;;;;;75.13;44.42;;;;;;;;;;4822662;29;20054;-63
2022/03/03 05:00:19;;;;;;;76.00;45.15;;;;;;;;;;4822262;29;20206;-62
2022/03/03 05:02:45;;;;;;;76.13;44.35;;;;;;;;;;4822946;29;20062;-62
2022/03/03 05:05:12;;;;;;;79.18;46.10;;;;;;;;;;4822156;29;20054;-62
2022/03/03 05:07:38;;;;;;;82.07;48.05;;;;;;;;;;4822639;29;20325;-63
2022/03/03 05:10:04;;;;;;;78.22;48.67;;;;;;;;;;4822446;29;20050;-62
2022/03/03 05:12:30;;;;;;;83.70;46.30;;;;;;;;;;4822287;29;20050;-62
2022/03/03 05:14:57;;;;;;;83.72;48.03;;;;;;;;;;4822366;29;20508;-63
2022/03/03 05:17:24;;;;;;;79.55;46.38;;;;;;;;;;4822406;29;20543;-66
2022/03/03 05:19:50;;;;;;;77.55;47.17;;;;;;;;;;4822343;29;20147;-62
2022/03/03 05:22:16;;;;;;;77.40;48.17;;;;;;;;;;4805932;29;20456;-63
2022/03/03 05:24:42;;;;;;;79.50;48.00;;;;;;;;;;4822391;29;20181;-62
2022/03/03 05:27:10;;;;;;;80.05;47.65;;;;;;;;;;4822202;29;20122;-62
2022/03/03 05:29:36;;;;;;;78.72;45.17;;;;;;;;;;4822204;29;20126;-63
2022/03/03 05:32:02;;;;;;;76.20;45.33;;;;;;;;;;4821939;29;20090;-64
2022/03/03 05:34:28;;;;;;;80.38;44.38;;;;;;;;;;4821946;29;20062;-63
2022/03/03 05:36:54;;;;;;;71.68;43.72;;;;;;;;;;4821826;29;20050;-62
2022/03/03 05:39:21;;;;;;;79.47;46.42;;;;;;;;;;4821861;29;20162;-62
2022/03/03 05:41:47;;;;;;;76.30;45.00;;;;;;;;;;4822054;29;20444;-62
2022/03/03 05:44:14;;;;;;;77.63;44.55;;;;;;;;;;4821911;29;20321;-62
2022/03/03 05:46:43;;;;;;;77.65;46.42;;;;;;;;;;4821941;29;20047;-63
2022/03/03 05:49:10;;;;;;;75.85;46.10;;;;;;;;;;4821360;29;20467;-62
2022/03/03 05:51:36;;;;;;;79.13;46.10;;;;;;;;;;4821920;29;20137;-62
2022/03/03 05:54:02;;;;;;;;;;;;;;;;;;4821891;29;20403;-63
2022/03/03 05:56:30;;;;;;;80.47;46.63;;;;;;;;;;4821055;29;19929;-63
2022/03/03 05:58:58;;;;;;;79.13;47.63;;;;;;;;;;4821377;29;20479;-62
2022/03/03 06:01:24;;;;;;;79.60;48.83;;;;;;;;;;4821541;29;20057;-62
2022/03/03 06:03:50;;;;;;;;;;;;;;;;;;4822267;29;20054;-62
2022/03/03 06:06:18;;;;;;;80.97;48.78;;;;;;;;;;4821668;29;19940;-62
2022/03/03 06:08:59;;;;;;;72.72;45.05;;;;;;;;;;4821426;29;20064;-63
2022/03/03 06:11:28;;;;;;;82.63;49.60;;;;;;;;;;4821008;29;20055;-63
2022/03/03 06:14:04;;;;;;;75.82;45.45;;;;;;;;;;4821169;29;20046;-62
2022/03/03 06:16:31;;;;;;;82.73;48.30;;;;;;;;;;4833919;29;20053;-62
2022/03/03 06:18:59;;;;;;;79.80;47.65;;;;;;;;;;4820019;29;20060;-62
2022/03/03 06:21:25;;;;;;;82.35;47.00;;;;;;;;;;4819434;29;20111;-62
2022/03/03 06:23:51;;;;;;;82.38;47.90;;;;;;;;;;4819581;29;20093;-62
2022/03/03 06:26:18;;;;;;;78.70;46.67;;;;;;;;;;4819403;29;20166;-62
2022/03/03 06:28:45;;;;;;;89.45;49.35;;;;;;;;;;4819085;29;20059;-62
2022/03/03 06:31:11;;;;;;;82.45;49.70;;;;;;;;;;4817911;29;20465;-63
2022/03/03 06:33:38;;;;;;;85.50;50.42;;;;;;;;;;4819310;29;20109;-62
2022/03/03 06:36:04;;;;;;;84.70;51.22;;;;;;;;;;4819043;29;20165;-63
2022/03/03 06:38:31;;;;;;;85.03;51.72;;;;;;;;;;4819167;29;20097;-64
2022/03/03 06:40:57;;;;;;;82.88;49.47;;;;;;;;;;4819605;29;20127;-63
2022/03/03 06:43:29;;;;;;;88.20;50.20;;;;;;;;;;4819088;29;20467;-64
2022/03/03 06:45:56;;;;;;;87.30;49.95;;;;;;;;;;4803022;29;20061;-63
2022/03/03 06:48:22;;;;;;;88.90;50.90;;;;;;;;;;4819611;29;20271;-63
2022/03/03 06:50:50;;;;;;;89.43;49.70;;;;;;;;;;4833762;29;20058;-63
2022/03/03 06:53:17;;;;;;;86.38;49.53;;;;;;;;;;4819705;29;20064;-64
2022/03/03 06:55:44;;;;;;;86.10;50.75;;;;;;;;;;4820557;29;20050;-65
2022/03/03 06:58:12;;;;;;;86.43;50.00;;;;;;;;;;4819160;29;20196;-65
2022/03/03 07:00:38;;;;;;;84.00;50.97;;;;;;;;;;4819678;29;20050;-63
2022/03/03 07:03:05;;;;;;;83.72;50.88;;;;;;;;;;4819715;29;20356;-64
2022/03/03 07:05:31;;;;;;;;;;;;;;;;;;4820041;29;20053;-64
2022/03/03 07:07:57;;;;;;;88.93;51.80;;;;;;;;;;4802996;29;19928;-63
2022/03/03 07:10:25;;;;;;;92.00;53.95;;;;;;;;;;4818715;29;20050;-68
2022/03/03 07:12:55;;;;;;;89.13;50.90;;;;;;;;;;4819291;29;20480;-63
2022/03/03 07:15:22;;;;;;;96.10;51.65;;;;;;;;;;4818959;29;20061;-64
2022/03/03 07:17:51;;;;;;;90.63;52.17;;;;;;;;;;4818751;29;20055;-64
2022/03/03 07:20:18;;;;;;;86.05;51.53;;;;;;;;;;4818795;29;20054;-63
2022/03/03 07:22:53;;;;;;;94.28;51.05;;;;;;;;;;4818914;29;20050;-63
2022/03/03 07:25:21;;;;;;;88.35;52.08;;;;;;;;;;4818887;29;20428;-63
2022/03/03 07:27:47;;;;;;;93.78;50.10;;;;;;;;;;4819035;29;20062;-63
2022/03/03 07:30:15;;;;;;;95.57;55.33;;;;;;;;;;4818722;29;20125;-64
2022/03/03 07:33:01;;;;;;;97.50;52.67;;;;;;;;;;4818586;29;20067;-63
2022/03/03 07:35:28;;;;;;;92.65;51.47;;;;;;;;;;4818144;29;20139;-64
2022/03/03 07:37:55;;;;;;;90.85;51.92;;;;;;;;;;4818701;29;20157;-63
2022/03/03 07:40:21;;;;;;;91.95;53.38;;;;;;;;;;4818371;29;20126;-64
2022/03/03 07:42:47;;;;;;;95.68;50.58;;;;;;;;;;4832170;29;20402;-63
2022/03/03 07:45:13;;;;;;;92.18;51.20;;;;;;;;;;4818610;29;20368;-63
2022/03/03 07:47:39;;;;;;;89.50;49.55;;;;;;;;;;4819320;29;20477;-63
2022/03/03 07:50:06;;;;;;;88.38;49.55;;;;;;;;;;4818974;29;20121;-63
2022/03/03 07:52:32;;;;;;;85.78;48.90;;;;;;;;;;4802557;29;20506;-63
2022/03/03 07:54:59;;;;;;;85.32;48.78;;;;;;;;;;4818608;29;20081;-62
2022/03/03 07:57:30;;;;;;;86.93;48.67;;;;;;;;;;4818501;29;20145;-65
2022/03/03 08:00:02;;;;;;;87.47;50.38;;;;;;;;;;4818622;29;20054;-64
2022/03/03 08:02:30;;;;;;;84.60;47.20;;;;;;;;;;4801968;29;20059;-63
2022/03/03 08:04:57;;;;;;;80.20;47.03;;;;;;;;;;4818911;29;20157;-64
2022/03/03 08:07:24;;;;;;;83.22;48.50;;;;;;;;;;4818411;29;20210;-63
2022/03/03 08:09:51;;;;;;;77.25;46.97;;;;;;;;;;4801713;29;20147;-63
2022/03/03 08:12:17;;;;;;;82.75;47.08;;;;;;;;;;4817900;29;20090;-64
2022/03/03 08:14:44;;;;;;;85.28;47.95;;;;;;;;;;4818198;29;20069;-64
2022/03/03 08:17:13;;;;;;;74.57;45.38;;;;;;;;;;4817721;29;20084;-63
2022/03/03 08:19:39;;;;;;;80.60;47.00;;;;;;;;;;4818653;29;20240;-64
2022/03/03 08:22:05;;;;;;;82.70;45.60;;;;;;;;;;4821600;29;20126;-63
2022/03/03 08:24:35;;;;;;;84.20;43.92;;;;;;;;;;4821264;29;20051;-63
2022/03/03 08:27:03;;;;;;;77.60;43.65;;;;;;;;;;4821404;29;20099;-63
2022/03/03 08:29:29;;;;;;;75.63;44.10;;;;;;;;;;4804556;29;20194;-64
2022/03/03 08:31:57;;;;;;;67.93;40.10;;;;;;;;;;4821366;29;20214;-63
2022/03/03 08:34:23;;;;;;;78.07;42.72;;;;;;;;;;4821038;29;20066;-66
2022/03/03 08:36:54;;;;;;;70.07;40.42;;;;;;;;;;4821310;29;20061;-63
2022/03/03 08:39:26;;;;;;;74.38;41.05;;;;;;;;;;4820754;29;20119;-64
2022/03/03 08:41:55;;;;;;;70.40;40.05;;;;;;;;;;4820779;29;20111;-63
2022/03/03 08:44:21;;;;;;;67.38;41.22;;;;;;;;;;4820863;29;20054;-63
2022/03/03 08:46:48;;;;;;;70.68;40.88;;;;;;;;;;4820610;29;20201;-64
2022/03/03 08:49:14;;;;;;;68.03;40.50;;;;;;;;;;4820776;29;20122;-64
2022/03/03 08:51:40;;;;;;;67.70;39.72;;;;;;;;;;4820912;29;20146;-62
2022/03/03 08:54:07;;;;;;;67.13;39.42;;;;;;;;;;4820920;29;20185;-62
2022/03/03 08:56:39;;;;;;;68.82;39.83;;;;;;;;;;4820719;29;20191;-63
2022/03/03 08:59:05;;;;;;;65.75;40.08;;;;;;;;;;4820718;29;20110;-63
2022/03/03 09:01:31;;;;;;;64.72;38.25;;;;;;;;;;4820926;29;20158;-63
2022/03/03 09:03:58;;;;;;;70.22;40.30;;;;;;;;;;4834380;29;20109;-62
2022/03/03 09:06:24;;;;;;;;;;;;;;;;;;4804722;29;20372;-62
2022/03/03 09:08:51;;;;;;;65.97;39.45;;;;;;;;;;4820679;29;19931;-62
2022/03/03 09:11:18;;;;;;;65.55;38.42;;;;;;;;;;4820344;29;20145;-62
2022/03/03 09:13:44;;;;;;;71.88;39.75;;;;;;;;;;4820281;29;20075;-63
2022/03/03 09:16:11;;;;;;;64.45;39.88;;;;;;;;;;4820272;29;20095;-64
2022/03/03 09:18:37;;;;;;;67.93;38.40;;;;;;;;;;4803860;29;20062;-62
2022/03/03 09:21:03;;;;;;;67.70;39.35;;;;;;;;;;4820517;29;20065;-63
2022/03/03 09:23:29;;;;;;;71.63;40.25;;;;;;;;;;4820375;29;20083;-63
2022/03/03 09:25:55;;;;;;;71.43;39.22;;;;;;;;;;4820415;29;20051;-62
2022/03/03 09:28:21;;;;;;;65.07;37.20;;;;;;;;;;4820492;29;20063;-62
2022/03/03 09:30:49;;;;;;;59.75;37.63;;;;;;;;;;4819440;29;20551;-63
2022/03/03 09:33:15;;;;;;;61.22;37.53;;;;;;;;;;4820080;29;20058;-61
2022/03/03 09:35:41;;;;;;;59.70;35.45;;;;;;;;;;4820243;29;20053;-62
2022/03/03 09:38:07;;;;;;;60.55;35.92;;;;;;;;;;4820084;29;20058;-62
2022/03/03 09:40:33;;;;;;;59.03;35.78;;;;;;;;;;4819798;29;20134;-62
2022/03/03 09:43:07;;;;;;;57.17;35.13;;;;;;;;;;4833855;29;20110;-62
2022/03/03 09:45:33;;;;;;;65.03;36.60;;;;;;;;;;4819972;29;20083;-62
2022/03/03 09:48:00;;;;;;;60.35;34.92;;;;;;;;;;4819537;29;20073;-62
2022/03/03 09:50:27;;;;;;;56.28;34.25;;;;;;;;;;4819762;29;20049;-62
2022/03/03 09:52:54;;;;;;;54.03;32.95;;;;;;;;;;4819458;29;20202;-62
2022/03/03 09:55:21;;;;;;;54.78;32.08;;;;;;;;;;4819419;29;20456;-62
2022/03/03 09:57:48;;;;;;;53.10;32.50;;;;;;;;;;4833377;29;20064;-62
2022/03/03 10:00:14;;;;;;;57.38;32.92;;;;;;;;;;4819568;29;20047;-62
2022/03/03 10:02:55;;;;;;;52.33;31.33;;;;;;;;;;4819465;29;20054;-62
2022/03/03 10:05:32;;;;;;;52.05;31.20;;;;;;;;;;4819642;29;20081;-65
2022/03/03 10:08:01;;;;;;;50.38;29.50;;;;;;;;;;4833455;29;20134;-62
2022/03/03 10:10:27;;;;;;;45.35;27.27;;;;;;;;;;4819473;29;20054;-62
2022/03/03 10:12:56;;;;;;;47.42;28.52;;;;;;;;;;4802907;29;20058;-61
2022/03/03 10:15:25;;;;;;;40.45;24.98;;;;;;;;;;4819413;29;20050;-62
2022/03/03 10:17:55;;;;;;;40.70;26.83;;;;;;;;;;4819414;29;20058;-62
2022/03/03 10:20:22;;;;;;;41.85;25.40;;;;;;;;;;4819379;29;20160;-61
2022/03/03 10:22:57;;;;;;;40.47;25.33;;;;;;;;;;4819317;29;20046;-62
2022/03/03 10:25:27;;;;;;;42.00;25.90;;;;;;;;;;4803680;29;20064;-62
2022/03/03 10:27:53;;;;;;;38.17;23.50;;;;;;;;;;4819460;29;20100;-62
2022/03/03 10:30:20;;;;;;;42.72;23.83;;;;;;;;;;4819367;29;20195;-63
2022/03/03 10:32:47;;;;;;;42.88;25.05;;;;;;;;;;4819019;29;20480;-67
2022/03/03 10:35:14;;;;;;;36.83;23.38;;;;;;;;;;4819266;29;20077;-60
2022/03/03 10:37:40;;;;;;;39.90;24.38;;;;;;;;;;4818787;29;20066;-63
2022/03/03 10:40:06;;;;;;;;;;;;;;;;;;4819434;29;20062;-60
2022/03/03 10:42:32;;;;;;;45.42;25.05;;;;;;;;;;4818605;29;19924;-62
2022/03/03 10:45:09;;;;;;;42.35;25.13;;;;;;;;;;4818790;29;20359;-63
2022/03/03 10:47:35;;;;;;;;;;;;;;;;;;4819625;29;20179;-60
2022/03/03 10:50:01;;;;;;;39.03;24.20;;;;;;;;;;4818959;29;19924;-61
2022/03/03 10:52:29;;;;;;;42.55;24.13;;;;;;;;;;4818917;29;20061;-61
2022/03/03 10:55:03;;;;;;;37.53;22.55;;;;;;;;;;4818696;29;20400;-60
2022/03/03 10:57:37;;;;;;;40.03;22.95;;;;;;;;;;4819063;29;20076;-61
2022/03/03 11:00:12;;;;;;;44.67;24.38;;;;;;;;;;4819111;29;20482;-61
2022/03/03 11:02:40;;;;;;;38.15;24.08;;;;;;;;;;4818664;29;20079;-64
2022/03/03 11:05:09;;;;;;;37.72;23.73;;;;;;;;;;4818563;29;20529;-61
2022/03/03 11:07:36;;;;;;;39.60;23.55;;;;;;;;;;4818926;29;20094;-62
2022/03/03 11:10:04;;;;;;;40.47;23.88;;;;;;;;;;4818998;29;20077;-62
2022/03/03 11:12:30;;;;;;;40.15;23.02;;;;;;;;;;4832809;29;20054;-64
2022/03/03 11:14:57;;;;;;;38.20;23.42;;;;;;;;;;4818978;29;20184;-65
2022/03/03 11:17:24;;;;;;;34.60;21.65;;;;;;;;;;4802061;29;20137;-62
2022/03/03 11:19:51;;;;;;;37.10;23.40;;;;;;;;;;4818697;29;20517;-60
2022/03/03 11:22:18;;;;;;;38.50;23.55;;;;;;;;;;4818878;29;20054;-63
2022/03/03 11:24:44;;;;;;;;;;;;;;;;;;4820895;29;20098;-63
2022/03/03 11:27:10;;;;;;;41.03;24.05;;;;;;;;;;4818922;29;20377;-63
2022/03/03 11:29:38;;;;;;;41.72;24.92;;;;;;;;;;4818713;29;20106;-62
2022/03/03 11:32:17;;;;;;;43.80;25.77;;;;;;;;;;4818804;29;20448;-64
2022/03/03 11:34:44;;;;;;;45.15;24.90;;;;;;;;;;4818472;29;20095;-61
2022/03/03 11:37:10;;;;;;;42.85;25.52;;;;;;;;;;4818845;29;20054;-63
2022/03/03 11:39:37;;;;;;;39.28;24.88;;;;;;;;;;4818966;29;20491;-62
2022/03/03 11:42:24;;;;;;;37.42;23.88;;;;;;;;;;4818220;29;20058;-60
2022/03/03 11:44:51;;;;;;;42.50;25.15;;;;;;;;;;4818396;29;20070;-62
2022/03/03 11:47:19;;;;;;;45.75;27.83;;;;;;;;;;4818510;29;20069;-61
2022/03/03 11:50:17;;;;;;;44.13;28.20;;;;;;;;;;4832311;29;20066;-69
2022/03/03 11:52:45;;;;;;;45.90;28.75;;;;;;;;;;4762753;29;20119;-62
2022/03/03 11:55:29;;;;;;;46.45;27.77;;;;;;;;;;4817642;29;20070;-68
2022/03/03 11:58:03;;;;;;;43.33;26.40;;;;;;;;;;4818374;29;20061;-67
2022/03/03 12:00:30;;;;;;;42.75;26.65;;;;;;;;;;4818290;29;20078;-66
2022/03/03 12:03:07;;;;;;;44.42;25.70;;;;;;;;;;4818070;29;20183;-64
2022/03/03 12:05:38;;;;;;;42.30;25.92;;;;;;;;;;4818259;29;20125;-60
2022/03/03 12:08:13;;;;;;;44.38;25.33;;;;;;;;;;4817811;29;20181;-60
2022/03/03 12:10:56;;;;;;;42.70;25.30;;;;;;;;;;4817617;29;20050;-70
2022/03/03 12:13:29;;;;;;;45.08;27.10;;;;;;;;;;4817887;29;20054;-59
2022/03/03 12:16:14;;;;;;;38.80;24.00;;;;;;;;;;4817578;29;20050;-65
2022/03/03 12:18:42;;;;;;;40.63;24.55;;;;;;;;;;4817871;29;20069;-61
2022/03/03 12:21:25;;;;;;;38.00;24.17;;;;;;;;;;4817639;29;20055;-61
2022/03/03 12:24:12;;;;;;;40.75;24.83;;;;;;;;;;4817444;29;20062;-60
2022/03/03 12:26:50;;;;;;;39.65;23.65;;;;;;;;;;4817520;29;20050;-60
2022/03/03 12:29:29;;;;;;;43.63;25.00;;;;;;;;;;4817499;29;20050;-60
2022/03/03 12:31:55;;;;;;;37.80;24.75;;;;;;;;;;4817504;29;20153;-62
2022/03/03 12:34:21;;;;;;;38.85;24.00;;;;;;;;;;4817694;29;20073;-66
2022/03/03 12:36:47;;;;;;;;;;;;;;;;;;4817986;29;20130;-65
2022/03/03 12:39:15;;;;;;;39.60;23.38;;;;;;;;;;4817421;29;20363;-63
2022/03/03 12:41:43;;;;;;;40.22;24.88;;;;;;;;;;4831300;29;20077;-63
2022/03/03 12:44:11;;;;;;;37.92;24.17;;;;;;;;;;4817542;29;20086;-62
2022/03/03 12:46:37;;;;;;;37.53;22.30;;;;;;;;;;4817493;29;20054;-61
2022/03/03 12:49:04;;;;;;;34.03;20.52;;;;;;;;;;4817590;29;20137;-61
2022/03/03 12:51:31;;;;;;;40.28;22.48;;;;;;;;;;4817446;29;20055;-61
2022/03/03 12:53:57;;;;;;;36.55;23.52;;;;;;;;;;4818126;29;20058;-62
2022/03/03 12:56:26;;;;;;;34.03;20.92;;;;;;;;;;4817472;29;20047;-62
2022/03/03 12:58:52;;;;;;;36.35;21.00;;;;;;;;;;4817088;29;20491;-63
2022/03/03 13:01:22;;;;;;;40.10;21.88;;;;;;;;;;4830961;29;20074;-62
2022/03/03 13:03:48;;;;;;;35.60;21.25;;;;;;;;;;4817128;29;20478;-63
2022/03/03 13:06:14;;;;;;;31.75;19.63;;;;;;;;;;4818357;29;20127;-63
2022/03/03 13:08:40;;;;;;;31.27;18.65;;;;;;;;;;4820419;29;20054;-62
2022/03/03 13:11:07;;;;;;;36.13;19.65;;;;;;;;;;4804064;29;20206;-62
2022/03/03 13:13:44;;;;;;;32.28;19.02;;;;;;;;;;4820371;29;20201;-62
2022/03/03 13:16:17;;;;;;;31.58;18.77;;;;;;;;;;4820334;29;20155;-61
2022/03/03 13:18:44;;;;;;;32.53;20.60;;;;;;;;;;4820496;29;20145;-61
2022/03/03 13:21:11;;;;;;;33.97;21.48;;;;;;;;;;4820093;29;20065;-61
2022/03/03 13:23:40;;;;;;;28.48;17.40;;;;;;;;;;4820179;29;20058;-61
2022/03/03 13:26:10;;;;;;;31.02;17.30;;;;;;;;;;4820315;29;20046;-64
2022/03/03 13:29:00;;;;;;;29.80;19.17;;;;;;;;;;4820109;29;20098;-61
2022/03/03 13:31:27;;;;;;;38.25;21.88;;;;;;;;;;4820195;29;20077;-66
2022/03/03 13:33:59;;;;;;;33.80;20.33;;;;;;;;;;4820390;29;20091;-61
2022/03/03 13:36:29;;;;;;;31.65;19.90;;;;;;;;;;4820086;29;20130;-62
2022/03/03 13:39:00;;;;;;;36.90;20.42;;;;;;;;;;4820128;29;20066;-62
2022/03/03 13:41:26;;;;;;;32.67;18.88;;;;;;;;;;4834619;29;20050;-63
2022/03/03 13:44:12;;;;;;;35.70;19.38;;;;;;;;;;4820603;29;20089;-62
2022/03/03 13:46:39;;;;;;;30.50;17.75;;;;;;;;;;4819871;29;20129;-62
2022/03/03 13:49:05;;;;;;;31.55;18.00;;;;;;;;;;4820977;29;20141;-63
2022/03/03 13:51:32;;;;;;;30.33;17.80;;;;;;;;;;4820128;29;20145;-62
2022/03/03 13:53:58;;;;;;;;;;;;;;;;;;4820127;29;20069;-65
2022/03/03 13:56:28;;;;;;;26.67;16.65;;;;;;;;;;4819573;29;19933;-62
2022/03/03 13:59:10;;;;;;;29.15;15.77;;;;;;;;;;4819507;29;20050;-62
2022/03/03 14:01:40;;;;;;;30.15;16.02;;;;;;;;;;4819597;29;20062;-62
2022/03/03 14:04:24;;;;;;;31.02;17.20;;;;;;;;;;4833504;29;20058;-63
2022/03/03 14:06:50;;;;;;;29.65;17.25;;;;;;;;;;4833401;29;20062;-62
2022/03/03 14:09:25;;;;;;;26.33;15.57;;;;;;;;;;4819072;29;20523;-63
2022/03/03 14:11:52;;;;;;;28.42;15.85;;;;;;;;;;4818966;29;20130;-62
2022/03/03 14:14:22;;;;;;;27.98;15.25;;;;;;;;;;4819189;29;20065;-63
2022/03/03 14:16:50;;;;;;;31.10;16.35;;;;;;;;;;4818893;29;20102;-62
2022/03/03 14:19:16;;;;;;;27.38;16.30;;;;;;;;;;4818540;29;20134;-62
2022/03/03 14:21:42;;;;;;;30.55;17.35;;;;;;;;;;4819136;29;20072;-61
2022/03/03 14:24:08;;;;;;;29.20;16.75;;;;;;;;;;4818933;29;20337;-63